Puerto Delicia, Argentina
Current Conditions -  °F | °C
As of 4:00 PM on Thursday 27 Nov 2014 (Local Time) from SARI Reporting Station
Few Clouds Few Clouds  
Wind Chill: 91°   Ceiling: Unl
Heat Index: 95°   Visibility: 6mi
Dew Point: 68°   Wind: 13mph
Humidity: 46%   Direction: 200°SSW
Pressure: 29.85"   Gusts: NA
Location:  26.33°S, 54.64°W
Report Text: SARI 271900Z 20011KT 9999 FEW030 33/20 Q1011
Loading
Personal Weather Stations






























Interactive Weather Map New forecast layout! Learn more

10-Day Weather Forecast

Advertisements
Track Severe Weather on mobile